Mega Smeralda — ICIU — position and weather

sailwx.info

Track history (hours):
 
Tides and Currents Weather Stations Pressure Air Temp Water Temp Dewpoint Dewpoint Depression Visibility Wind Speed Wind Dir Waves Ship Positions

Mega Smeralda

Last reported at 2016-May-25 20:33 UTC. Time now 2016-May-25 20:52 UTC.
Position N 43°03' E 009°01'.

Length 171 m; draft 6.4 m.

Type: Passenger vessel. MMSI: 247228600.

Date/timePositionNaut miles runAvg speedWind from/ knotsBaromVisibWave heightAir tempDewpointWater temp
2016-May-25 20:33N 43°03' E 009°01'1717.4
2016-May-25 19:33N 43°04' E 009°25'1716.7
2016-May-25 18:33N 42°48' E 009°32'4 1.5
2016-May-25 16:06N 42°44' E 009°33'1420.0
2016-May-25 15:24N 42°53' E 009°47'1619.3
2016-May-25 14:33N 43°06' E 010°00'2020.1
2016-May-25 13:33N 43°25' E 010°09'10 9.8
2016-May-25 12:32N 43°33' E 010°18'0 0.0
2016-May-25 11:32N 43°33' E 010°18'0 0.0
2016-May-25 10:32N 43°33' E 010°18'1110.6
2016-May-25 09:32N 43°24' E 010°10'2019.9
2016-May-25 08:33N 43°06' E 010°00'17713.6
2016-May-24 19:30N 43°04' E 005°58'3 3.2
2016-May-24 18:32N 43°07' E 005°56'0 0.0
2016-May-24 17:32N 43°07' E 005°56'0 0.0
2016-May-24 16:32N 43°07' E 005°56'0 0.0
2016-May-24 15:32N 43°07' E 005°56'0 0.0
2016-May-24 14:32N 43°07' E 005°56'0 0.0
2016-May-24 13:32N 43°07' E 005°56'0 0.0
2016-May-24 12:32N 43°07' E 005°56'0 0.0
2016-May-24 11:32N 43°07' E 005°56'0 0.0
2016-May-24 10:32N 43°07' E 005°56'0 0.0
2016-May-24 09:32N 43°07' E 005°56'0 0.0
2016-May-24 08:32N 43°07' E 005°56'0 0.0
2016-May-24 07:29N 43°07' E 005°56'0 0.0
2016-May-24 06:32N 43°07' E 005°56'0 0.0
2016-May-24 05:32N 43°07' E 005°56'26 0.8
2016-May-22 21:33N 42°50' E 006°22'2115.6
2016-May-22 20:12N 43°03' E 005°59'5 7.7
2016-May-22 19:33N 43°07' E 005°56'0 0.0
2016-May-22 18:33N 43°07' E 005°56'0 0.0
2016-May-22 17:33N 43°07' E 005°56'0 0.0
2016-May-22 16:33N 43°07' E 005°56'0 0.0
2016-May-22 15:33N 43°07' E 005°56'0 0.0
2016-May-22 14:33N 43°07' E 005°56'0 0.0
2016-May-22 13:33N 43°07' E 005°56'0 0.0
2016-May-22 12:33N 43°07' E 005°56'0 0.0
2016-May-22 11:30N 43°07' E 005°56'0 0.0
2016-May-22 10:33N 43°07' E 005°56'0 0.0
2016-May-22 09:33N 43°07' E 005°56'0 0.0
2016-May-22 08:33N 43°07' E 005°56'0 0.0
2016-May-22 07:33N 43°07' E 005°56'0 0.0
2016-May-22 06:33N 43°07' E 005°56'6 5.3
2016-May-22 05:25N 43°02' E 006°00'1517.3
2016-May-22 04:33N 42°53' E 006°16'1717.5
2016-May-22 03:33N 42°43' E 006°36'2317.5
2016-May-22 02:16N 42°31' E 007°02'1318.2
2016-May-22 01:33N 42°25' E 007°17'1818.0
2016-May-22 00:33N 42°15' E 007°38'1717.2
2016-May-21 23:33N 42°06' E 007°57'19 3.8
2016-May-21 18:31N 42°02' E 008°23'1920.1
2016-May-21 17:33N 42°20' E 008°11'2020.3
2016-May-21 16:34N 42°38' E 007°59'2120.7
2016-May-21 15:34N 42°57' E 007°47'2120.7
2016-May-21 14:34N 43°15' E 007°34'2020.1
2016-May-21 13:34N 43°33' E 007°22'9 8.9
2016-May-21 12:33N 43°42' E 007°17'9 9.3
2016-May-21 11:33N 43°33' E 007°22'1918.9
2016-May-21 10:33N 43°16' E 007°34'2019.6
2016-May-21 09:34N 42°59' E 007°45'2020.3
2016-May-21 08:33N 42°40' E 007°58'2020.1
2016-May-21 07:33N 42°22' E 008°09'22 3.1
2016-May-21 00:33N 42°12' E 007°43'9318.0
2016-May-20 19:22N 43°04' E 005°58'3 3.6
2016-May-20 18:33N 43°07' E 005°56'0 0.1
2016-May-20 17:33N 43°07' E 005°56'4916.4
2016-May-20 14:34N 42°37' E 006°49'1818.2
2016-May-20 13:34N 42°28' E 007°11'2018.6
2016-May-20 12:30N 42°17' E 007°33'84 4.9
2016-May-19 19:26N 43°04' E 005°59'4 4.2
2016-May-19 18:33N 43°07' E 005°56'0 0.0
2016-May-19 17:32N 43°07' E 005°56'0 0.0
2016-May-19 16:32N 43°07' E 005°56'0 0.0
2016-May-19 15:32N 43°07' E 005°56'0 0.0
2016-May-19 14:32N 43°07' E 005°56'0 0.0
2016-May-19 13:29N 43°07' E 005°56'0 0.0
2016-May-19 12:29N 43°07' E 005°56'0 0.0
2016-May-19 11:26N 43°07' E 005°56'0 0.0
2016-May-19 10:20N 43°07' E 005°56'0 0.0
2016-May-19 09:32N 43°07' E 005°56'0 0.0
2016-May-19 08:32N 43°07' E 005°56'0 0.0
2016-May-19 07:08N 43°07' E 005°56'0 0.0
2016-May-19 06:26N 43°07' E 005°56'55 9.2
2016-May-19 00:28N 42°34' E 006°56'3114.9
2016-May-18 22:21N 42°18' E 007°32'81 3.0
2016-May-17 19:33N 43°01' E 005°60'6 6.2
2016-May-17 18:33N 43°07' E 005°56'0 0.0
2016-May-17 17:33N 43°07' E 005°56'0 0.0
2016-May-17 16:23N 43°07' E 005°56'0 0.0
2016-May-17 15:23N 43°07' E 005°56'0 0.0
2016-May-17 14:17N 43°07' E 005°56'0 0.0
2016-May-17 13:23N 43°07' E 005°56'0 0.0
2016-May-17 12:29N 43°07' E 005°56'1 0.1
2016-May-17 05:34N 43°06' E 005°55'14818.5
2016-May-16 21:33N 43°03' E 009°18'14610.4
2016-May-16 07:32N 43°05' E 005°58'3 2.7
2016-May-16 06:33N 43°07' E 005°56'2 1.7
2016-May-16 05:33N 43°05' E 005°56'  
Track history (hours):
 
Tides and Currents Weather Stations Pressure Air Temp Water Temp Dewpoint Dewpoint Depression Visibility Wind Speed Wind Dir Waves Ship Positions

Mega Smeralda

Last reported at 2016-May-25 20:33 UTC. Time now 2016-May-25 20:52 UTC.
Position N 43°03' E 009°01'.

Length 171 m; draft 6.4 m.

Type: Passenger vessel. MMSI: 247228600.

Date/timePositionNaut miles runAvg speedWind from/ knotsBaromVisibWave heightAir tempDewpointWater temp
2016-May-25 20:33N 43°03' E 009°01'1717.4
2016-May-25 19:33N 43°04' E 009°25'1716.7
2016-May-25 18:33N 42°48' E 009°32'4 1.5
2016-May-25 16:06N 42°44' E 009°33'1420.0
2016-May-25 15:24N 42°53' E 009°47'1619.3
2016-May-25 14:33N 43°06' E 010°00'2020.1
2016-May-25 13:33N 43°25' E 010°09'10 9.8
2016-May-25 12:32N 43°33' E 010°18'0 0.0
2016-May-25 11:32N 43°33' E 010°18'0 0.0
2016-May-25 10:32N 43°33' E 010°18'1110.6
2016-May-25 09:32N 43°24' E 010°10'2019.9
2016-May-25 08:33N 43°06' E 010°00'17713.6
2016-May-24 19:30N 43°04' E 005°58'3 3.2
2016-May-24 18:32N 43°07' E 005°56'0 0.0
2016-May-24 17:32N 43°07' E 005°56'0 0.0
2016-May-24 16:32N 43°07' E 005°56'0 0.0
2016-May-24 15:32N 43°07' E 005°56'0 0.0
2016-May-24 14:32N 43°07' E 005°56'0 0.0
2016-May-24 13:32N 43°07' E 005°56'0 0.0
2016-May-24 12:32N 43°07' E 005°56'0 0.0
2016-May-24 11:32N 43°07' E 005°56'0 0.0
2016-May-24 10:32N 43°07' E 005°56'0 0.0
2016-May-24 09:32N 43°07' E 005°56'0 0.0
2016-May-24 08:32N 43°07' E 005°56'0 0.0
2016-May-24 07:29N 43°07' E 005°56'0 0.0
2016-May-24 06:32N 43°07' E 005°56'0 0.0
2016-May-24 05:32N 43°07' E 005°56'26 0.8
2016-May-22 21:33N 42°50' E 006°22'2115.6
2016-May-22 20:12N 43°03' E 005°59'5 7.7
2016-May-22 19:33N 43°07' E 005°56'0 0.0
2016-May-22 18:33N 43°07' E 005°56'0 0.0
2016-May-22 17:33N 43°07' E 005°56'0 0.0
2016-May-22 16:33N 43°07' E 005°56'0 0.0
2016-May-22 15:33N 43°07' E 005°56'0 0.0
2016-May-22 14:33N 43°07' E 005°56'0 0.0
2016-May-22 13:33N 43°07' E 005°56'0 0.0
2016-May-22 12:33N 43°07' E 005°56'0 0.0
2016-May-22 11:30N 43°07' E 005°56'0 0.0
2016-May-22 10:33N 43°07' E 005°56'0 0.0
2016-May-22 09:33N 43°07' E 005°56'0 0.0
2016-May-22 08:33N 43°07' E 005°56'0 0.0
2016-May-22 07:33N 43°07' E 005°56'0 0.0
2016-May-22 06:33N 43°07' E 005°56'6 5.3
2016-May-22 05:25N 43°02' E 006°00'1517.3
2016-May-22 04:33N 42°53' E 006°16'1717.5
2016-May-22 03:33N 42°43' E 006°36'2317.5
2016-May-22 02:16N 42°31' E 007°02'1318.2
2016-May-22 01:33N 42°25' E 007°17'1818.0
2016-May-22 00:33N 42°15' E 007°38'1717.2
2016-May-21 23:33N 42°06' E 007°57'19 3.8
2016-May-21 18:31N 42°02' E 008°23'1920.1
2016-May-21 17:33N 42°20' E 008°11'2020.3
2016-May-21 16:34N 42°38' E 007°59'2120.7
2016-May-21 15:34N 42°57' E 007°47'2120.7
2016-May-21 14:34N 43°15' E 007°34'2020.1
2016-May-21 13:34N 43°33' E 007°22'9 8.9
2016-May-21 12:33N 43°42' E 007°17'9 9.3
2016-May-21 11:33N 43°33' E 007°22'1918.9
2016-May-21 10:33N 43°16' E 007°34'2019.6
2016-May-21 09:34N 42°59' E 007°45'2020.3
2016-May-21 08:33N 42°40' E 007°58'2020.1
2016-May-21 07:33N 42°22' E 008°09'22 3.1
2016-May-21 00:33N 42°12' E 007°43'9318.0
2016-May-20 19:22N 43°04' E 005°58'3 3.6
2016-May-20 18:33N 43°07' E 005°56'0 0.1
2016-May-20 17:33N 43°07' E 005°56'4916.4
2016-May-20 14:34N 42°37' E 006°49'1818.2
2016-May-20 13:34N 42°28' E 007°11'2018.6
2016-May-20 12:30N 42°17' E 007°33'84 4.9
2016-May-19 19:26N 43°04' E 005°59'4 4.2
2016-May-19 18:33N 43°07' E 005°56'0 0.0
2016-May-19 17:32N 43°07' E 005°56'0 0.0
2016-May-19 16:32N 43°07' E 005°56'0 0.0
2016-May-19 15:32N 43°07' E 005°56'0 0.0
2016-May-19 14:32N 43°07' E 005°56'0 0.0
2016-May-19 13:29N 43°07' E 005°56'0 0.0
2016-May-19 12:29N 43°07' E 005°56'0 0.0
2016-May-19 11:26N 43°07' E 005°56'0 0.0
2016-May-19 10:20N 43°07' E 005°56'0 0.0
2016-May-19 09:32N 43°07' E 005°56'0 0.0
2016-May-19 08:32N 43°07' E 005°56'0 0.0
2016-May-19 07:08N 43°07' E 005°56'0 0.0
2016-May-19 06:26N 43°07' E 005°56'55 9.2
2016-May-19 00:28N 42°34' E 006°56'3114.9
2016-May-18 22:21N 42°18' E 007°32'81 3.0
2016-May-17 19:33N 43°01' E 005°60'6 6.2
2016-May-17 18:33N 43°07' E 005°56'0 0.0
2016-May-17 17:33N 43°07' E 005°56'0 0.0
2016-May-17 16:23N 43°07' E 005°56'0 0.0
2016-May-17 15:23N 43°07' E 005°56'0 0.0
2016-May-17 14:17N 43°07' E 005°56'0 0.0
2016-May-17 13:23N 43°07' E 005°56'0 0.0
2016-May-17 12:29N 43°07' E 005°56'1 0.1
2016-May-17 05:34N 43°06' E 005°55'14818.5
2016-May-16 21:33N 43°03' E 009°18'14610.4
2016-May-16 07:32N 43°05' E 005°58'3 2.7
2016-May-16 06:33N 43°07' E 005°56'2 1.7
2016-May-16 05:33N 43°05' E 005°56'  

Dump ship's entire track history